• Join FlightAware (Why Join?)
  • Login
  • US Flag 
12:03AM EDT


 

Airport Tracker/Info


-or-


 

Live Flight TrackerFlight Track Log ✈ KCR746 ✈ 11-Jul-2013 ✈ KDYR - KMQY

Flight Track Log - Related Links

Times and Time Zones

All times are in EDT time to prevent confusion due to time zone crossing. See the KCR746 flight status page for this flight to view local times or setup timezone preferences in your user account.

Time Position Orientation Groundspeed Altitude Reporting Facility
EDT Latitude Longitude Course Direction KTS MPH feet Rate Location/Type
12:26AM 36.0000 -88.9804 90° East  Level FlightAware Approximate
12:26AM 36.0150 -89.3819 90° East 260 299 1,900  Level Memphis Center
12:27AM 36.0000 -88.9102 90° East  Level FlightAware Approximate
12:27AM 36.0022 -89.3333 108° East 173 199 3,900  Level Memphis Center
12:28AM 35.9953 -89.2769 99° East 161 185 5,600 1,740 Climbing Memphis Center
12:29AM 36.0011 -89.2153 83° East 161 185 7,400 1,620 Climbing Memphis Center
12:30AM 35.9983 -89.1564 93° East 161 185 8,900 1,440 Climbing Memphis Center
12:31AM 36.0019 -89.0919 86° East 172 198 10,300 1,440 Climbing Memphis Center
12:32AM 36.0014 -89.0278 91° East 178 205 11,800 1,320 Climbing Memphis Center
12:33AM 36.0028 -88.9611 89° East 178 205 13,000 1,200 Climbing Memphis Center
12:34AM 36.0039 -88.8944 89° East 183 211 14,200 1,140 Climbing Memphis Center
12:35AM 36.0053 -88.8303 88° East 183 211 15,300 960 Climbing Memphis Center
12:36AM 36.0022 -88.7558 93° East 196 226 16,200 660 Climbing Memphis Center
12:37AM 36.0053 -88.6789 87° East 207 238 16,700 360 Climbing Memphis Center
12:38AM 36.0083 -88.5992 87° East 224 258 17,000 120 Climbing Memphis Center
12:39AM 36.0092 -88.5119 89° East 236 272 17,000  Level Memphis Center
12:40AM 36.0100 -88.4197 89° East 248 285 17,000  Level Memphis Center
12:41AM 36.0128 -88.3297 88° East 259 298 17,000  Level Memphis Center
12:42AM 36.0111 -88.2375 91° East 259 298 17,000  Level Memphis Center
12:43AM 36.0117 -88.1450 90° East 259 298 17,000  Level Memphis Center
12:44AM 36.0139 -88.0475 88° East 265 305 17,000 -360 Level Memphis Center
12:45AM 36.0122 -87.9475 91° East 271 312 16,300 -840 Descending Memphis Center
12:46AM 36.0144 -87.8497 88° East 281 323 15,400 -900 Descending Memphis Center
12:47AM 36.0144 -87.7600 90° East 281 323 14,600 -780 Descending Memphis Center
12:48AM 36.0189 -87.6675 87° East 281 323 13,900 -780 Descending Memphis Center
12:49AM 36.0169 -87.5778 92° East 266 306 13,100 -840 Descending Memphis Center
12:50AM 36.0169 -87.4881 90° East 260 299 12,300 -900 Descending Memphis Center
12:51AM 36.0086 -87.3958 96° East 255 293 11,400 -960 Descending Memphis Center
12:52AM 36.0022 -87.3089 95° East 255 293 10,400 -960 Descending Memphis Center
12:53AM 35.9978 -87.2192 93° East 255 293 9,500 -900 Descending Memphis Center
12:54AM 35.9914 -87.1297 95° East 255 293 8,600 -1,080 Descending Memphis Center
12:55AM 35.9828 -87.0378 97° East 260 299 7,400 -1,320 Descending Memphis Center
12:56AM 35.9783 -86.9481 93° East 246 283 6,000 -1,200 Descending Memphis Center
12:57AM 35.9742 -86.8739 94° East 220 253 5,000 -900 Descending Memphis Center
12:58AM 35.9700 -86.8022 94° East 215 247 4,200 -720 Descending Memphis Center
12:59AM 35.9617 -86.7333 98° East 210 242 3,600 -600 Descending Memphis Center
01:00AM 35.9575 -86.6644 94° East 204 235 3,100 -540 Descending Memphis Center
01:01AM 35.9514 -86.6006 97° East 197 227 2,600 -540 Descending Memphis Center
01:03AM 36.0000 -86.5167 90° East  Level FlightAware Approximate
01:10AM 36.0090 -86.5201 90° East  Level Estimated
01:11AM 36.0090 -86.5201 90° East  Level Estimated
01:12AM 36.0090 -86.5201 90° East  Level Estimated
01:13AM 36.0090 -86.5201 90° East  Level Estimated
01:14AM 36.0090 -86.5201 90° East  Level Estimated
01:15AM 36.0090 -86.5201 90° East  Level Estimated
01:16AM 36.0090 -86.5201 90° East  Level Estimated
01:17AM 36.0090 -86.5201 90° East  Level Estimated
01:18AM 36.0090 -86.5201 90° East  Level Estimated
01:19AM 36.0090 -86.5201 90° East  Level Estimated